UKV5035 RJFM-RJKA

Flight info

Callsign UKV5035
Flight time 0h 42m
Altitude 30000
Route JACKY B597 TUMGI
Aircraft A321/M-SDE3FGHIRWY/LB1

Departure

Time 2026-05-07 17:58
Airport Miyazaki Airport (RJFM)

Arrival

Time 2026-05-07 18:40
Airport Amami Airport (RJKA)
Time Latitude Longitude Altitude Speed Heading
2026-05-07 17:52 31.87439 131.44356 33 ft 4 kts 175°
2026-05-07 17:52 31.87461 131.44354 33 ft 4 kts 165°
2026-05-07 17:53 31.87484 131.44341 33 ft 4 kts 140°
2026-05-07 17:53 31.87498 131.44326 32 ft 1 kts 137°
2026-05-07 17:53 31.87501 131.44324 32 ft 0 kts 137°
2026-05-07 17:55 31.87500 131.44326 31 ft 1 kts 123°
2026-05-07 17:55 31.87504 131.44360 30 ft 14 kts 84°
2026-05-07 17:55 31.87519 131.44546 33 ft 27 kts 85°
2026-05-07 17:55 31.87534 131.44752 33 ft 29 kts 85°
2026-05-07 17:56 31.87554 131.45039 33 ft 42 kts 85°
2026-05-07 17:56 31.87581 131.45391 34 ft 43 kts 85°
2026-05-07 17:56 31.87606 131.45736 33 ft 43 kts 85°
2026-05-07 17:56 31.87627 131.46042 33 ft 26 kts 85°
2026-05-07 17:57 31.87730 131.46154 34 ft 23 kts 350°
2026-05-07 17:57 31.87796 131.46116 36 ft 10 kts 288°
2026-05-07 17:57 31.87780 131.45847 32 ft 64 kts 265°
2026-05-07 17:57 31.87726 131.45064 34 ft 127 kts 265°
2026-05-07 17:58 31.87652 131.43885 375 ft 144 kts 255°
2026-05-07 17:58 31.87027 131.43106 1081 ft 140 kts 191°
2026-05-07 17:58 31.86033 131.43404 1539 ft 159 kts 154°
2026-05-07 17:58 31.85106 131.44192 1990 ft 171 kts 146°
2026-05-07 17:59 31.84219 131.45281 2183 ft 198 kts 133°
2026-05-07 17:59 31.83299 131.46607 2404 ft 221 kts 134°
2026-05-07 17:59 31.82263 131.48078 2629 ft 246 kts 134°
2026-05-07 17:59 31.81116 131.49704 2949 ft 270 kts 134°
2026-05-07 18:00 31.79891 131.51441 3432 ft 285 kts 134°
2026-05-07 18:00 31.78623 131.53253 4194 ft 288 kts 134°
2026-05-07 18:00 31.77349 131.55084 4994 ft 290 kts 133°
2026-05-07 18:00 31.76069 131.56925 5827 ft 290 kts 133°
2026-05-07 18:01 31.74790 131.58761 6686 ft 289 kts 133°
2026-05-07 18:01 31.73508 131.60597 7409 ft 292 kts 133°
2026-05-07 18:01 31.72209 131.62456 8135 ft 295 kts 133°
2026-05-07 18:01 31.70911 131.64312 8839 ft 299 kts 133°
2026-05-07 18:02 31.68217 131.68149 10129 ft 310 kts 134°
2026-05-07 18:02 31.66789 131.70167 10293 ft 333 kts 134°
2026-05-07 18:02 31.65279 131.72300 10415 ft 355 kts 133°
2026-05-07 18:03 31.63656 131.74597 10536 ft 376 kts 133°
2026-05-07 18:03 31.61947 131.77023 10649 ft 395 kts 133°
2026-05-07 18:03 31.60051 131.79427 10792 ft 406 kts 144°
2026-05-07 18:03 31.57648 131.81148 11215 ft 405 kts 161°
2026-05-07 18:04 31.54931 131.81957 11761 ft 401 kts 179°
2026-05-07 18:04 31.52171 131.81786 12342 ft 396 kts 195°
2026-05-07 18:04 31.49608 131.80681 12945 ft 392 kts 211°
2026-05-07 18:04 31.47415 131.78855 13551 ft 392 kts 220°
2026-05-07 18:05 31.45249 131.76837 14128 ft 393 kts 220°
2026-05-07 18:05 31.43103 131.74844 14654 ft 395 kts 220°
2026-05-07 18:05 31.40969 131.72870 15160 ft 397 kts 220°
2026-05-07 18:05 31.38792 131.70863 15662 ft 399 kts 220°
2026-05-07 18:06 31.36605 131.68851 16155 ft 400 kts 220°
2026-05-07 18:06 31.34413 131.66832 16646 ft 402 kts 220°
2026-05-07 18:06 31.32205 131.64800 17117 ft 404 kts 220°
2026-05-07 18:06 31.29990 131.62758 17590 ft 406 kts 220°
2026-05-07 18:07 31.27765 131.60709 17994 ft 408 kts 220°
2026-05-07 18:07 31.25527 131.58653 18392 ft 411 kts 220°
2026-05-07 18:07 31.23302 131.56611 18750 ft 413 kts 220°
2026-05-07 18:07 31.21011 131.54508 19146 ft 414 kts 220°
2026-05-07 18:08 31.18763 131.52448 19504 ft 416 kts 220°
2026-05-07 18:08 31.16482 131.50356 19858 ft 418 kts 220°
2026-05-07 18:08 31.14188 131.48251 20213 ft 420 kts 220°
2026-05-07 18:08 31.11874 131.46130 20564 ft 422 kts 221°
2026-05-07 18:09 31.09580 131.44028 20907 ft 424 kts 221°
2026-05-07 18:09 31.07255 131.41900 21242 ft 426 kts 221°
2026-05-07 18:09 31.04907 131.39752 21574 ft 428 kts 221°
2026-05-07 18:09 31.02555 131.37602 21886 ft 430 kts 221°
2026-05-07 18:10 31.00190 131.35438 22218 ft 433 kts 221°
2026-05-07 18:10 30.97811 131.33264 22547 ft 435 kts 221°
2026-05-07 18:10 30.95425 131.31085 22879 ft 437 kts 221°
2026-05-07 18:10 30.93062 131.28926 23205 ft 439 kts 221°
2026-05-07 18:11 30.90655 131.26727 23523 ft 441 kts 221°
2026-05-07 18:11 30.89020 131.25234 23701 ft 442 kts 221°
2026-05-07 18:11 30.85804 131.22304 24061 ft 444 kts 221°
2026-05-07 18:11 30.83364 131.20088 24424 ft 443 kts 221°
2026-05-07 18:12 30.80933 131.17885 24764 ft 443 kts 221°
2026-05-07 18:12 30.78499 131.15680 25121 ft 442 kts 221°
2026-05-07 18:12 30.76074 131.13482 25486 ft 442 kts 221°
2026-05-07 18:12 30.73675 131.11308 25848 ft 442 kts 221°
2026-05-07 18:13 30.71253 131.09112 26208 ft 441 kts 221°
2026-05-07 18:13 30.68834 131.06920 26579 ft 441 kts 221°
2026-05-07 18:13 30.66411 131.04729 26929 ft 441 kts 221°
2026-05-07 18:13 30.64806 131.03281 27193 ft 440 kts 221°
2026-05-07 18:14 30.62388 131.01101 27598 ft 439 kts 221°
2026-05-07 18:14 30.59906 130.99020 27986 ft 441 kts 216°
2026-05-07 18:14 30.57198 130.97318 28370 ft 443 kts 212°
2026-05-07 18:14 30.53575 130.95133 28917 ft 442 kts 212°
2026-05-07 18:15 30.51725 130.94015 29190 ft 442 kts 212°
2026-05-07 18:15 30.49036 130.92385 29560 ft 441 kts 212°
2026-05-07 18:15 30.46316 130.90732 29913 ft 441 kts 212°
2026-05-07 18:16 30.40834 130.87417 29976 ft 445 kts 212°
2026-05-07 18:16 30.35323 130.84101 29978 ft 446 kts 212°
2026-05-07 18:17 30.29834 130.80807 29978 ft 446 kts 212°
2026-05-07 18:17 30.24321 130.77493 29983 ft 447 kts 212°
2026-05-07 18:18 30.18801 130.74176 29981 ft 447 kts 212°
2026-05-07 18:18 30.13320 130.70883 29957 ft 447 kts 213°
2026-05-07 18:19 30.07800 130.67580 29984 ft 441 kts 213°
2026-05-07 18:19 30.02440 130.64395 29984 ft 422 kts 213°
2026-05-07 18:20 29.97286 130.61321 29969 ft 418 kts 213°
2026-05-07 18:20 29.92113 130.58222 29983 ft 418 kts 213°
2026-05-07 18:21 29.86945 130.55136 29980 ft 418 kts 213°
2026-05-07 18:21 29.81774 130.52063 29983 ft 418 kts 213°
2026-05-07 18:22 29.76642 130.49017 29961 ft 418 kts 213°
2026-05-07 18:22 29.71463 130.45941 29977 ft 419 kts 213°
2026-05-07 18:22 29.68862 130.44399 29642 ft 422 kts 213°
2026-05-07 18:23 29.66229 130.42835 28561 ft 427 kts 213°
2026-05-07 18:23 29.63616 130.41290 27304 ft 419 kts 213°
2026-05-07 18:23 29.61095 130.39726 26125 ft 407 kts 219°
2026-05-07 18:23 29.59110 130.37550 25135 ft 385 kts 235°
2026-05-07 18:24 29.57519 130.35125 24269 ft 374 kts 233°
2026-05-07 18:24 29.55495 130.33291 23787 ft 378 kts 210°
2026-05-07 18:24 29.52968 130.32355 23241 ft 383 kts 202°
2026-05-07 18:24 29.50519 130.31238 22750 ft 376 kts 212°
2026-05-07 18:25 29.48258 130.29824 22242 ft 373 kts 213°
2026-05-07 18:25 29.45951 130.28455 21762 ft 372 kts 211°
2026-05-07 18:25 29.43616 130.27172 21270 ft 370 kts 211°
2026-05-07 18:25 29.41300 130.25885 20780 ft 368 kts 211°
2026-05-07 18:26 29.38998 130.24582 20303 ft 372 kts 211°
2026-05-07 18:26 29.36702 130.23293 19811 ft 370 kts 211°
2026-05-07 18:26 29.34397 130.21995 19327 ft 368 kts 211°
2026-05-07 18:26 29.32103 130.20704 18843 ft 366 kts 211°
2026-05-07 18:27 29.29823 130.19424 18365 ft 364 kts 210°
2026-05-07 18:27 29.27555 130.18158 17845 ft 361 kts 210°
2026-05-07 18:27 29.25317 130.16903 17364 ft 356 kts 210°
2026-05-07 18:27 29.23105 130.15670 16908 ft 351 kts 210°
2026-05-07 18:28 29.20925 130.14441 16452 ft 347 kts 210°
2026-05-07 18:28 29.18766 130.13233 15996 ft 343 kts 209°
2026-05-07 18:28 29.16625 130.12042 15545 ft 340 kts 209°
2026-05-07 18:28 29.14533 130.10877 15103 ft 336 kts 209°
2026-05-07 18:29 29.12437 130.09715 14663 ft 333 kts 208°
2026-05-07 18:29 29.10360 130.08556 14231 ft 330 kts 208°
2026-05-07 18:29 29.08306 130.07407 13796 ft 327 kts 208°
2026-05-07 18:29 29.06268 130.06265 13334 ft 325 kts 208°
2026-05-07 18:30 29.04261 130.05144 12907 ft 323 kts 208°
2026-05-07 18:30 29.02245 130.04011 12476 ft 322 kts 208°
2026-05-07 18:30 29.00235 130.02889 12056 ft 320 kts 208°
2026-05-07 18:30 28.98230 130.01781 11631 ft 319 kts 208°
2026-05-07 18:31 28.96236 130.00667 11212 ft 318 kts 209°
2026-05-07 18:31 28.94252 129.99555 10793 ft 317 kts 209°
2026-05-07 18:31 28.92269 129.98459 10373 ft 316 kts 209°
2026-05-07 18:31 28.90320 129.97379 9966 ft 314 kts 209°
2026-05-07 18:32 28.88361 129.96284 9529 ft 312 kts 209°
2026-05-07 18:32 28.86411 129.95199 9115 ft 310 kts 208°
2026-05-07 18:32 28.84484 129.94133 8703 ft 306 kts 208°
2026-05-07 18:32 28.82578 129.93078 8301 ft 303 kts 209°
2026-05-07 18:33 28.80687 129.92029 7908 ft 300 kts 209°
2026-05-07 18:33 28.78816 129.90992 7511 ft 298 kts 208°
2026-05-07 18:33 28.76954 129.89961 7116 ft 296 kts 209°
2026-05-07 18:33 28.75131 129.88944 6740 ft 294 kts 208°
2026-05-07 18:34 28.73290 129.87934 6334 ft 292 kts 208°
2026-05-07 18:34 28.71465 129.86926 5941 ft 290 kts 208°
2026-05-07 18:34 28.69657 129.85925 5553 ft 287 kts 208°
2026-05-07 18:34 28.67867 129.84936 5178 ft 285 kts 208°
2026-05-07 18:35 28.66130 129.83972 4796 ft 268 kts 209°
2026-05-07 18:35 28.64509 129.83071 4461 ft 251 kts 209°
2026-05-07 18:35 28.62982 129.82232 4163 ft 237 kts 209°
2026-05-07 18:35 28.61534 129.81428 3822 ft 230 kts 209°
2026-05-07 18:36 28.60142 129.80658 3527 ft 215 kts 208°
2026-05-07 18:36 28.58820 129.79923 3277 ft 206 kts 208°
2026-05-07 18:36 28.57587 129.79237 2985 ft 188 kts 208°
2026-05-07 18:36 28.56452 129.78616 2733 ft 174 kts 208°
2026-05-07 18:37 28.55404 129.78044 2529 ft 157 kts 209°
2026-05-07 18:37 28.54449 129.77514 2320 ft 149 kts 209°
2026-05-07 18:37 28.53528 129.77001 2118 ft 146 kts 209°
2026-05-07 18:37 28.52620 129.76501 1929 ft 145 kts 208°
2026-05-07 18:38 28.51727 129.76009 1737 ft 144 kts 209°
2026-05-07 18:38 28.50827 129.75514 1543 ft 144 kts 208°
2026-05-07 18:38 28.49928 129.75020 1361 ft 144 kts 208°
2026-05-07 18:38 28.49030 129.74520 1154 ft 144 kts 208°
2026-05-07 18:39 28.48121 129.74025 969 ft 143 kts 207°
2026-05-07 18:39 28.47233 129.73532 810 ft 142 kts 207°
2026-05-07 18:39 28.46341 129.73038 619 ft 142 kts 206°
2026-05-07 18:39 28.45448 129.72546 402 ft 143 kts 206°
2026-05-07 18:40 28.44563 129.72081 224 ft 141 kts 207°
2026-05-07 18:40 28.43692 129.71599 63 ft 130 kts 208°
2026-05-07 18:40 28.43039 129.71240 52 ft 65 kts 206°
2026-05-07 18:40 28.42771 129.71091 51 ft 38 kts 206°
2026-05-07 18:41 28.42694 129.70937 52 ft 15 kts 308°
2026-05-07 18:41 28.42778 129.70890 56 ft 15 kts 17°
2026-05-07 18:41 28.42875 129.70941 50 ft 16 kts 25°
2026-05-07 18:41 28.42979 129.70999 51 ft 17 kts 27°
2026-05-07 18:42 28.43064 129.71046 55 ft 10 kts 25°
2026-05-07 18:42 28.43132 129.71060 51 ft 9 kts 331°
2026-05-07 18:42 28.43132 129.71015 56 ft 6 kts 280°
2026-05-07 18:42 28.43152 129.70970 51 ft 7 kts 297°
2026-05-07 18:43 28.43165 129.70942 50 ft 0 kts 298°